Weather at City of Colorado Springs Municipal Airport

Public forecast

Using degrees Fahrenheit for public forecast. Weather courtesy of forecast.io.

Current aviation weather report (METAR) for City of Colorado Springs Municipal Airport

Report is more than 6 hours old.

2022/11/14 14:54 (retrieved 2 years ago)

KCOS 141454Z 03008KT 10SM BKN039 BKN055 M03/M11 A3007 RMK AO2 SLP216 T10331111 53012

Aviation forecast (TAF) for City of Colorado Springs Municipal Airport

Forecast is more than 12 hours old.

2023/02/22 20:09 Ammendment (retrieved 1 year ago)

TAF AMD KCOS 222007Z 2220/2318 17012KT 3SM -SHSN BR BKN015 OVC025 TEMPO 2220/2222 3/4SM -SHSN OVC008 FM222300 17012G22KT P6SM VCSH SCT020 OVC040 FM230900 19010KT P6SM SCT100 SCT200